Time;durP1;ratioP1;P1;durP2;ratioP2;P2;SDS_P1;SDS_P2;PMS_P1;PMS_P2;Temp;Humidity;BMP_temperature;BMP_pressure;BME280_temperature;BME280_humidity;BME280_pressure;Samples;Min_cycle;Max_cycle;Signal;HPM_P1;HPM_P2
2022/06/16 00:00:00;;;;;;;11.45;5.95;;;;;;;17.44;100.00;101808.59;5208035;28;20022;-71
2022/06/16 00:02:30;;;;;;;13.20;5.88;;;;;;;17.39;100.00;101803.72;5213326;28;20028;-72
2022/06/16 00:05:01;;;;;;;16.42;7.10;;;;;;;17.35;100.00;101805.13;5220073;28;20021;-71
2022/06/16 00:07:31;;;;;;;16.75;6.55;;;;;;;17.33;100.00;101809.91;5214715;28;20017;-71
2022/06/16 00:10:03;;;;;;;14.02;6.20;;;;;;;17.29;100.00;101800.47;5205699;28;20113;-72
2022/06/16 00:12:34;;;;;;;10.55;6.43;;;;;;;17.25;100.00;101808.13;5203451;28;20101;-72
2022/06/16 00:15:08;;;;;;;16.80;6.80;;;;;;;17.24;100.00;101806.44;5223062;28;20120;-71
2022/06/16 00:17:39;;;;;;;11.03;6.07;;;;;;;17.22;100.00;101807.63;5210116;28;20080;-71
2022/06/16 00:20:11;;;;;;;10.23;5.57;;;;;;;17.21;100.00;101814.09;5216070;28;20021;-71
2022/06/16 00:22:42;;;;;;;8.70;5.38;;;;;;;17.20;100.00;101813.25;5203200;28;20083;-71
2022/06/16 00:25:13;;;;;;;11.02;5.55;;;;;;;17.17;100.00;101819.06;5213284;28;20025;-71
2022/06/16 00:27:43;;;;;;;12.52;4.93;;;;;;;17.17;100.00;101826.34;5223669;28;20078;-72
2022/06/16 00:30:14;;;;;;;9.98;5.80;;;;;;;17.09;100.00;101828.13;5223978;28;20025;-71
2022/06/16 00:32:45;;;;;;;8.20;4.97;;;;;;;17.05;100.00;101831.38;5219369;28;20029;-71
2022/06/16 00:35:15;;;;;;;13.23;6.05;;;;;;;17.01;100.00;101830.91;5215119;28;20025;-70
2022/06/16 00:37:46;;;;;;;13.50;4.82;;;;;;;16.98;100.00;101833.16;5212520;28;20025;-70
2022/06/16 00:40:17;;;;;;;12.63;5.70;;;;;;;16.91;100.00;101830.31;5214157;28;20025;-70
2022/06/16 00:42:48;;;;;;;11.63;6.13;;;;;;;16.77;100.00;101834.72;5219037;28;20032;-71
2022/06/16 00:45:56;;;;;;;11.63;6.68;;;;;;;16.65;100.00;101838.00;5220145;28;20039;-71
2022/06/16 00:48:43;;;;;;;10.18;6.43;;;;;;;16.53;100.00;101832.19;5226519;28;20378;-72
2022/06/16 00:51:34;;;;;;;14.32;6.43;;;;;;;16.41;100.00;101822.78;5217242;28;20021;-72
2022/06/16 00:54:24;;;;;;;12.95;6.95;;;;;;;16.31;100.00;101821.16;5227365;28;20029;-71
2022/06/16 00:57:01;;;;;;;14.25;7.10;;;;;;;16.23;100.00;101823.09;5210257;28;20075;-72
2022/06/16 00:59:32;;;;;;;12.18;7.15;;;;;;;16.13;100.00;101826.03;5218662;28;20021;-71
2022/06/16 01:02:05;;;;;;;11.75;7.22;;;;;;;16.04;100.00;101827.09;5221601;28;20371;-72
2022/06/16 01:07:45;;;;;;;11.73;7.13;;;;;;;15.86;100.00;101831.91;5217301;28;20030;-71
2022/06/16 01:10:17;;;;;;;12.52;6.43;;;;;;;15.75;100.00;101825.88;5213579;28;20104;-72
2022/06/16 01:16:11;;;;;;;18.83;7.32;;;;;;;15.54;100.00;101841.84;5219269;28;20029;-72
2022/06/16 01:19:11;;;;;;;10.20;6.50;;;;;;;15.43;100.00;101826.00;5215876;28;20079;-72
2022/06/16 01:21:51;;;;;;;10.80;6.93;;;;;;;15.34;100.00;101829.75;5213840;28;20422;-72
2022/06/16 01:24:58;;;;;;;14.82;6.93;;;;;;;15.25;100.00;101829.75;5225644;28;20036;-72
2022/06/16 01:27:58;;;;;;;10.25;7.28;;;;;;;15.18;100.00;101830.63;5226179;28;20103;-72
2022/06/16 01:31:03;;;;;;;13.02;6.95;;;;;;;15.12;100.00;101840.28;5218154;28;20029;-71
2022/06/16 01:33:40;;;;;;;13.98;7.13;;;;;;;15.09;100.00;101842.47;5226875;28;20036;-72
2022/06/16 01:36:10;;;;;;;20.55;7.38;;;;;;;15.05;100.00;101846.53;5213085;28;20051;-72
2022/06/16 01:39:01;;;;;;;10.10;6.63;;;;;;;15.02;100.00;101848.56;5213500;28;20029;-72
2022/06/16 01:41:39;;;;;;;10.15;6.40;;;;;;;15.01;100.00;101854.16;5215962;28;20032;-72
2022/06/16 01:44:18;;;;;;;13.10;7.25;;;;;;;14.99;100.00;101846.19;5226327;28;20501;-72
2022/06/16 01:46:57;;;;;;;11.00;6.60;;;;;;;14.98;100.00;101849.06;5225183;28;20029;-72
2022/06/16 01:49:33;;;;;;;9.63;6.72;;;;;;;14.95;100.00;101846.72;5205663;28;20021;-71
2022/06/16 01:52:10;;;;;;;13.52;6.72;;;;;;;14.91;100.00;101848.06;5210126;28;20090;-71
2022/06/16 01:54:49;;;;;;;11.57;6.50;;;;;;;14.88;100.00;101841.16;5226403;28;20025;-71
2022/06/16 01:57:28;;;;;;;13.15;7.22;;;;;;;14.85;100.00;101846.03;5218792;28;20048;-71
2022/06/16 02:00:08;;;;;;;13.02;7.00;;;;;;;14.81;100.00;101840.16;5205618;28;20029;-71
2022/06/16 02:02:40;;;;;;;16.27;6.80;;;;;;;14.80;100.00;101849.25;5216837;28;20033;-70
2022/06/16 02:05:29;;;;;;;12.95;7.50;;;;;;;14.82;100.00;101851.81;5207131;28;20026;-71
2022/06/16 02:08:08;;;;;;;11.55;6.15;;;;;;;14.80;100.00;101859.22;5220431;28;20475;-71
2022/06/16 02:10:43;;;;;;;15.70;7.18;;;;;;;14.76;100.00;101864.97;5225886;28;20108;-71
2022/06/16 02:13:21;;;;;;;12.23;6.05;;;;;;;14.72;100.00;101865.47;5212859;28;20030;-71
2022/06/16 02:16:10;;;;;;;10.85;6.35;;;;;;;14.68;100.00;101873.06;5226356;28;20029;-71
2022/06/16 02:18:43;;;;;;;10.00;6.18;;;;;;;14.71;100.00;101878.13;5205270;28;20033;-71
2022/06/16 02:21:33;;;;;;;12.88;6.00;;;;;;;14.77;100.00;101890.13;5205164;28;20029;-71
2022/06/16 02:24:06;;;;;;;12.25;6.63;;;;;;;14.86;100.00;101899.06;5205686;28;20033;-72
2022/06/16 02:26:37;;;;;;;11.55;5.95;;;;;;;14.93;100.00;101902.78;5225194;28;20029;-71
2022/06/16 02:29:30;;;;;;;13.38;6.28;;;;;;;14.94;100.00;101915.28;5212386;28;20368;-71
2022/06/16 02:32:37;;;;;;;11.43;5.93;;;;;;;14.98;100.00;101916.63;5212868;28;20059;-71
2022/06/16 02:35:12;;;;;;;12.73;6.05;;;;;;;14.92;100.00;101918.16;5216074;28;20135;-71
2022/06/16 02:37:58;;;;;;;12.40;6.57;;;;;;;14.83;100.00;101918.31;5223205;28;20024;-72
2022/06/16 02:40:39;;;;;;;12.50;6.63;;;;;;;14.70;100.00;101913.41;5228190;28;20036;-71
2022/06/16 02:43:18;;;;;;;15.82;6.18;;;;;;;14.69;100.00;101917.97;5225476;28;20386;-72
2022/06/16 02:46:17;;;;;;;10.00;6.82;;;;;;;14.65;100.00;101919.28;5224945;28;20086;-72
2022/06/16 02:48:52;;;;;;;13.30;6.80;;;;;;;14.60;100.00;101918.97;5211928;28;20029;-72
2022/06/16 02:51:41;;;;;;;12.20;6.60;;;;;;;14.55;100.00;101915.06;5225645;28;20044;-73
2022/06/16 02:54:32;;;;;;;15.43;7.00;;;;;;;14.49;100.00;101919.28;5204357;28;20029;-72
2022/06/16 02:57:08;;;;;;;14.50;7.03;;;;;;;14.44;100.00;101913.50;5217847;28;20030;-72
2022/06/16 02:59:44;;;;;;;12.77;6.95;;;;;;;14.36;100.00;101927.84;5217181;28;20056;-72
2022/06/16 03:02:19;;;;;;;14.00;7.05;;;;;;;14.28;100.00;101935.06;5203858;28;20091;-73
2022/06/16 03:04:54;;;;;;;12.73;6.80;;;;;;;14.17;100.00;101934.34;5204116;28;20071;-72
2022/06/16 03:07:25;;;;;;;11.85;6.72;;;;;;;14.14;100.00;101928.44;5214535;28;20087;-73
2022/06/16 03:09:55;;;;;;;17.27;7.43;;;;;;;14.07;100.00;101939.03;5224752;28;20403;-73
2022/06/16 03:12:26;;;;;;;14.25;6.93;;;;;;;14.02;100.00;101929.75;5213158;28;20105;-73
2022/06/16 03:14:57;;;;;;;13.23;7.30;;;;;;;13.91;100.00;101929.03;5217315;28;20021;-72
2022/06/16 03:17:27;;;;;;;22.90;7.32;;;;;;;13.84;100.00;101930.66;5204595;28;20083;-72
2022/06/16 03:19:58;;;;;;;12.02;6.70;;;;;;;13.86;100.00;101938.63;5204061;28;20402;-72
2022/06/16 03:22:29;;;;;;;19.80;6.93;;;;;;;13.91;100.00;101944.38;5217847;28;20027;-72
2022/06/16 03:24:59;;;;;;;15.18;6.95;;;;;;;13.98;100.00;101953.50;5224010;28;20390;-72
2022/06/16 03:27:29;;;;;;;17.55;7.75;;;;;;;13.97;100.00;101952.66;5209886;28;20100;-73
2022/06/16 03:30:00;;;;;;;13.48;7.00;;;;;;;13.95;100.00;101948.41;5212441;28;20036;-72
2022/06/16 03:32:30;;;;;;;16.23;7.43;;;;;;;13.93;100.00;101962.06;5222328;28;20154;-71
2022/06/16 03:35:01;;;;;;;21.23;7.38;;;;;;;13.89;100.00;101954.47;5213125;28;20513;-71
2022/06/16 03:37:32;;;;;;;13.55;7.38;;;;;;;13.81;100.00;101952.59;5220707;28;20027;-71
2022/06/16 03:40:03;;;;;;;11.55;6.85;;;;;;;13.74;100.00;101960.44;5205917;28;20013;-71
2022/06/16 03:42:33;;;;;;;12.82;7.32;;;;;;;13.67;100.00;101950.47;5222109;28;20134;-71
2022/06/16 03:45:05;;;;;;;13.73;8.07;;;;;;;13.62;100.00;101959.03;5224302;28;20047;-71
2022/06/16 03:47:35;;;;;;;12.13;7.45;;;;;;;13.58;100.00;101954.97;5217042;28;20018;-71
2022/06/16 03:50:08;;;;;;;13.65;7.45;;;;;;;13.54;100.00;101961.69;5217162;28;20506;-71
2022/06/16 03:52:39;;;;;;;12.18;7.68;;;;;;;13.46;100.00;101962.47;5213129;28;20032;-71
2022/06/16 03:55:10;;;;;;;13.55;7.25;;;;;;;13.37;100.00;101963.44;5221246;28;20034;-71
2022/06/16 03:57:40;;;;;;;13.05;7.75;;;;;;;13.29;100.00;101962.50;5203867;28;20030;-71
2022/06/16 04:00:12;;;;;;;16.33;7.93;;;;;;;13.20;100.00;101969.66;5203668;28;20013;-71
2022/06/16 04:02:43;;;;;;;14.45;7.03;;;;;;;13.17;100.00;101973.50;5214534;28;20467;-71
2022/06/16 04:05:13;;;;;;;14.30;7.78;;;;;;;13.19;100.00;101973.34;5210893;28;20032;-71
2022/06/16 04:07:44;;;;;;;11.32;6.93;;;;;;;13.20;100.00;101983.13;5208908;28;20448;-70
2022/06/16 04:10:14;;;;;;;10.38;6.72;;;;;;;13.21;100.00;101985.72;5217039;28;20021;-71
2022/06/16 04:12:45;;;;;;;24.33;8.02;;;;;;;13.37;100.00;101997.63;5207959;28;20025;-71
2022/06/16 04:15:15;;;;;;;12.68;6.63;;;;;;;13.51;100.00;101996.22;5227831;28;20429;-72
2022/06/16 04:17:46;;;;;;;18.77;7.32;;;;;;;13.63;100.00;102000.34;5226178;28;20031;-71
2022/06/16 04:20:17;;;;;;;11.68;6.78;;;;;;;13.68;100.00;102008.78;5215590;28;20017;-71
2022/06/16 04:22:50;;;;;;;17.25;7.38;;;;;;;13.73;100.00;102015.41;5226609;28;20033;-71
2022/06/16 04:25:30;;;;;;;14.95;6.93;;;;;;;13.76;100.00;102013.41;5227712;28;20049;-72
2022/06/16 04:28:04;;;;;;;18.63;8.27;;;;;;;13.79;100.00;102011.22;5227942;28;20025;-71
2022/06/16 04:30:34;;;;;;;16.67;8.23;;;;;;;13.80;100.00;102012.91;5227421;28;20498;-71
2022/06/16 04:33:05;;;;;;;12.13;8.07;;;;;;;13.81;100.00;102019.19;5215069;28;20060;-71
2022/06/16 04:35:35;;;;;;;15.68;8.00;;;;;;;13.81;100.00;102024.56;5227634;28;20025;-72
2022/06/16 04:38:06;;;;;;;11.13;8.00;;;;;;;13.84;100.00;102024.22;5217337;28;20080;-71
2022/06/16 04:40:37;;;;;;;14.88;8.73;;;;;;;13.89;100.00;102027.28;5210704;28;20051;-71
2022/06/16 04:43:08;;;;;;;12.38;7.75;;;;;;;13.93;100.00;102024.13;5207596;28;20022;-71
2022/06/16 04:45:38;;;;;;;15.68;8.55;;;;;;;13.98;100.00;102034.44;5211605;28;20029;-70
2022/06/16 04:48:09;;;;;;;16.45;9.10;;;;;;;14.03;100.00;102034.81;5216319;28;20022;-70
2022/06/16 04:50:39;;;;;;;12.75;8.02;;;;;;;14.08;100.00;102026.22;5220237;28;20096;-70
2022/06/16 04:53:10;;;;;;;14.88;8.40;;;;;;;14.15;100.00;102027.25;5207617;28;20021;-70
2022/06/16 04:55:40;;;;;;;11.40;8.68;;;;;;;14.19;100.00;102021.38;5206850;28;20517;-71
2022/06/16 04:58:12;;;;;;;16.17;8.65;;;;;;;14.28;100.00;102029.53;5220844;28;20443;-72
2022/06/16 05:00:42;;;;;;;17.02;9.27;;;;;;;14.33;100.00;102027.19;5227230;28;20028;-72
2022/06/16 05:03:13;;;;;;;12.98;8.18;;;;;;;14.42;100.00;102034.31;5225279;28;20017;-72
2022/06/16 05:05:46;;;;;;;17.45;7.63;;;;;;;14.49;100.00;102024.59;5216041;28;20457;-72
2022/06/16 05:08:18;;;;;;;12.52;7.20;;;;;;;14.57;100.00;102021.94;5210433;28;20029;-72
2022/06/16 05:10:51;;;;;;;13.18;7.22;;;;;;;14.68;100.00;102021.63;5206738;28;20075;-72
2022/06/16 05:13:21;;;;;;;16.63;7.80;;;;;;;14.79;100.00;102015.06;5218813;28;20487;-73
2022/06/16 05:15:54;;;;;;;13.55;7.50;;;;;;;14.89;100.00;102018.44;5206587;28;20060;-72
2022/06/16 05:18:24;;;;;;;19.75;8.43;;;;;;;14.98;100.00;102022.84;5207111;28;20029;-72
2022/06/16 05:21:05;;;;;;;16.70;7.85;;;;;;;15.07;100.00;102029.13;5205231;28;20025;-71
2022/06/16 05:23:35;;;;;;;21.25;8.27;;;;;;;15.17;100.00;102034.38;5215014;28;20064;-72
2022/06/16 05:26:08;;;;;;;20.17;8.95;;;;;;;15.24;100.00;102040.78;5226522;28;20074;-72
2022/06/16 05:28:38;;;;;;;13.93;8.18;;;;;;;15.34;100.00;102032.50;5227084;28;20040;-71
2022/06/16 05:31:09;;;;;;;12.98;7.95;;;;;;;15.43;100.00;102042.31;5226033;28;20028;-70
2022/06/16 05:33:40;;;;;;;17.77;8.50;;;;;;;15.53;100.00;102037.59;5226554;28;20055;-70
2022/06/16 05:36:12;;;;;;;16.60;7.97;;;;;;;15.63;100.00;102054.53;5223478;28;20025;-70
2022/06/16 05:38:43;;;;;;;17.90;8.32;;;;;;;15.75;100.00;102066.66;5230128;28;20284;-70
2022/06/16 05:41:16;;;;;;;18.55;8.00;;;;;;;15.88;100.00;102076.97;5212080;28;20020;-70
2022/06/16 05:43:47;;;;;;;18.52;8.52;;;;;;;16.04;100.00;102078.81;5226243;28;20414;-70
2022/06/16 05:46:21;;;;;;;13.38;7.65;;;;;;;16.15;100.00;102081.16;5219045;28;20025;-70
2022/06/16 05:48:52;;;;;;;21.08;9.02;;;;;;;16.29;100.00;102085.84;5225873;28;20024;-70
2022/06/16 05:51:23;;;;;;;18.73;7.10;;;;;;;16.45;100.00;102079.53;5229951;28;20029;-70
2022/06/16 05:53:54;;;;;;;17.00;8.55;;;;;;;16.61;100.00;102078.63;5226471;28;20024;-70
2022/06/16 05:56:25;;;;;;;20.05;8.55;;;;;;;16.82;100.00;102086.19;5232759;28;20032;-70
2022/06/16 05:58:55;;;;;;;16.35;7.63;;;;;;;17.15;100.00;102096.84;5213014;28;20037;-70
2022/06/16 06:01:26;;;;;;;18.50;7.93;;;;;;;17.61;100.00;102084.09;5212427;28;20036;-70
2022/06/16 06:03:56;;;;;;;16.58;8.00;;;;;;;18.42;100.00;102089.78;5226118;28;20487;-70
2022/06/16 06:06:27;;;;;;;18.08;7.90;;;;;;;19.38;100.00;102083.22;5223614;28;20033;-70
2022/06/16 06:17:25;;;;;;;18.00;6.70;;;;;;;22.46;100.00;102109.38;5217729;28;20052;-71
2022/06/16 06:19:56;;;;;;;18.65;6.78;;;;;;;22.90;100.00;102104.22;5205976;28;20522;-71
2022/06/16 06:22:27;;;;;;;14.57;6.50;;;;;;;23.45;100.00;102105.34;5218377;28;20025;-71
2022/06/16 06:24:58;;;;;;;10.55;6.18;;;;;;;23.64;100.00;102106.28;5205274;28;20372;-71
2022/06/16 06:27:48;;;;;;;12.63;6.95;;;;;;;23.87;94.96;102100.19;5218578;28;20116;-71
2022/06/16 06:30:24;;;;;;;14.52;6.15;;;;;;;24.20;94.77;102108.13;5215962;28;20505;-71
2022/06/16 06:32:57;;;;;;;14.88;6.70;;;;;;;24.30;95.21;102124.03;5219633;28;20037;-71
2022/06/16 06:35:28;;;;;;;14.98;6.35;;;;;;;24.32;89.61;102119.16;5204041;28;20032;-71
2022/06/16 06:37:58;;;;;;;9.60;6.00;;;;;;;24.40;90.25;102131.75;5225693;28;20417;-71
2022/06/16 06:40:32;;;;;;;10.23;5.80;;;;;;;24.63;89.23;102137.41;5214482;28;20494;-71
2022/06/16 06:43:03;;;;;;;15.10;5.80;;;;;;;24.65;88.37;102131.69;5212207;28;20506;-71
2022/06/16 06:45:35;;;;;;;9.52;5.80;;;;;;;25.37;83.09;102137.34;5231224;28;20017;-71
2022/06/16 06:48:07;;;;;;;10.85;6.50;;;;;;;25.00;86.00;102145.59;5225239;28;20035;-71
2022/06/16 06:50:40;;;;;;;8.48;6.57;;;;;;;25.00;84.92;102154.72;5222475;28;20107;-71
2022/06/16 06:53:11;;;;;;;10.35;6.00;;;;;;;25.91;75.67;102158.28;5222252;28;20401;-71
2022/06/16 06:55:45;;;;;;;11.77;6.47;;;;;;;25.49;82.35;102158.25;5208626;28;20052;-71
2022/06/16 06:58:18;;;;;;;12.07;5.90;;;;;;;25.80;80.78;102164.56;5222173;28;20025;-71
2022/06/16 07:00:53;;;;;;;9.57;6.22;;;;;;;25.73;80.58;102178.41;5222111;28;20021;-71
2022/06/16 07:03:24;;;;;;;14.35;5.95;;;;;;;25.96;75.25;102180.41;5221636;28;20159;-71
2022/06/16 07:05:56;;;;;;;11.73;5.93;;;;;;;25.93;74.31;102178.13;5222130;28;20383;-71
2022/06/16 07:08:26;;;;;;;12.43;5.90;;;;;;;26.14;74.70;102178.63;5222030;28;20028;-71
2022/06/16 07:10:57;;;;;;;12.75;6.10;;;;;;;26.74;71.92;102194.91;5222252;28;20474;-73
2022/06/16 07:13:28;;;;;;;15.80;6.50;;;;;;;26.81;70.59;102196.44;5202283;28;20061;-72
2022/06/16 07:15:59;;;;;;;11.93;5.65;;;;;;;27.06;73.14;102201.66;5201540;28;20079;-71
2022/06/16 07:18:29;;;;;;;12.20;6.22;;;;;;;27.22;73.00;102200.09;5222156;28;20293;-72
2022/06/16 07:21:00;;;;;;;12.13;6.05;;;;;;;26.98;70.77;102192.94;5222264;28;20029;-71
2022/06/16 07:23:30;;;;;;;9.70;6.10;;;;;;;26.96;73.94;102187.69;5221695;28;20029;-71
2022/06/16 07:26:01;;;;;;;13.75;5.53;;;;;;;27.10;70.43;102186.31;5205577;28;20188;-71
2022/06/16 07:28:31;;;;;;;18.52;5.57;;;;;;;27.36;69.23;102189.59;5201479;28;20029;-71
2022/06/16 07:31:02;;;;;;;12.13;6.57;;;;;;;27.26;64.08;102193.00;5218085;28;20369;-71
2022/06/16 07:33:33;;;;;;;16.55;6.55;;;;;;;27.15;66.07;102184.75;5210251;28;20124;-71
2022/06/16 07:36:04;;;;;;;11.43;5.97;;;;;;;27.46;66.64;102184.28;5219621;28;20017;-72
2022/06/16 07:38:34;;;;;;;9.77;6.28;;;;;;;27.35;66.32;102194.25;5221950;28;20068;-71
2022/06/16 07:43:54;;;;;;;8.68;5.60;;;;;;;27.54;68.41;102197.66;5208343;28;20021;-71
2022/06/16 07:46:25;;;;;;;12.05;6.22;;;;;;;27.56;63.12;102208.44;5225049;28;20021;-71
2022/06/16 07:48:55;;;;;;;11.45;5.05;;;;;;;28.37;58.50;102215.41;5228662;28;20055;-71
2022/06/16 07:51:26;;;;;;;13.05;5.75;;;;;;;27.76;63.27;102216.25;5228802;28;20455;-71
2022/06/16 07:53:56;;;;;;;8.93;4.93;;;;;;;27.53;62.13;102218.03;5214801;28;20032;-71
2022/06/16 07:56:27;;;;;;;8.35;4.55;;;;;;;27.83;62.05;102217.78;5228513;28;20437;-71
2022/06/16 07:58:57;;;;;;;9.63;5.05;;;;;;;27.54;58.13;102224.38;5228845;28;20040;-72
2022/06/16 08:01:28;;;;;;;11.57;5.30;;;;;;;27.28;62.29;102218.38;5215149;28;20032;-72
2022/06/16 08:04:05;;;;;;;11.63;5.53;;;;;;;27.64;64.53;102221.81;5228114;28;20059;-71
2022/06/16 08:06:37;;;;;;;8.90;5.03;;;;;;;27.32;61.38;102219.56;5224440;28;20029;-71
2022/06/16 08:09:10;;;;;;;9.75;4.85;;;;;;;27.72;62.68;102218.69;5208041;28;20100;-71
2022/06/16 08:14:32;;;;;;;12.82;5.25;;;;;;;28.39;59.30;102221.50;5227589;28;20032;-71
2022/06/16 08:17:04;;;;;;;7.50;4.22;;;;;;;28.57;57.60;102228.69;5227897;28;20121;-71
2022/06/16 08:19:34;;;;;;;10.88;5.13;;;;;;;28.01;60.73;102219.47;5228587;28;20031;-71
2022/06/16 08:22:06;;;;;;;9.25;4.20;;;;;;;28.04;61.35;102235.53;5228204;28;20021;-71
2022/06/16 08:24:36;;;;;;;17.85;4.47;;;;;;;28.44;58.85;102234.53;5227749;28;20390;-71
2022/06/16 08:27:08;;;;;;;8.23;4.47;;;;;;;28.74;60.76;102238.84;5228013;28;20025;-71
2022/06/16 08:29:41;;;;;;;9.25;4.05;;;;;;;29.02;54.81;102237.88;5228338;28;20166;-72
2022/06/16 08:32:15;;;;;;;8.93;5.13;;;;;;;28.57;53.93;102239.72;5228093;28;20024;-71
2022/06/16 08:34:46;;;;;;;8.55;4.57;;;;;;;28.51;58.87;102231.59;5227801;28;20108;-71
2022/06/16 08:37:19;;;;;;;8.60;4.63;;;;;;;28.98;55.33;102226.50;5228306;28;20106;-71
2022/06/16 08:39:49;;;;;;;10.57;4.68;;;;;;;28.67;56.60;102222.47;5221200;28;20021;-72
2022/06/16 08:42:24;;;;;;;10.43;5.20;;;;;;;28.30;54.29;102228.50;5219830;28;20036;-71
2022/06/16 08:45:22;;;;;;;8.18;3.58;;;;;;;28.87;56.64;102217.22;5219669;28;20489;-71
2022/06/16 08:48:16;;;;;;;9.45;4.35;;;;;;;28.56;54.33;102218.72;5222432;28;20530;-71
2022/06/16 08:50:51;;;;;;;9.40;4.50;;;;;;;28.71;58.67;102211.75;5228390;28;20375;-71
2022/06/16 08:53:59;;;;;;;5.63;3.92;;;;;;;29.06;53.82;102219.69;5227855;28;20387;-71
2022/06/16 08:56:29;;;;;;;10.63;4.40;;;;;;;28.49;55.00;102218.06;5227885;28;20260;-71
2022/06/16 08:59:19;;;;;;;6.63;3.55;;;;;;;28.56;53.98;102224.22;5224322;28;20444;-71
2022/06/16 09:01:55;;;;;;;7.88;4.20;;;;;;;28.63;53.21;102219.38;5211146;28;20049;-71
2022/06/16 09:04:46;;;;;;;9.82;3.60;;;;;;;28.83;53.24;102213.31;5211473;28;20026;-71
2022/06/16 09:07:30;;;;;;;9.95;3.58;;;;;;;28.87;52.60;102210.88;5213012;28;20037;-71
2022/06/16 09:10:17;;;;;;;7.75;3.45;;;;;;;29.26;52.99;102210.81;5225226;28;20032;-71
2022/06/16 09:12:56;;;;;;;8.80;4.00;;;;;;;29.03;51.55;102217.47;5224446;28;20029;-71
2022/06/16 09:16:04;;;;;;;7.70;3.78;;;;;;;29.37;50.63;102209.84;5224588;28;20379;-71
2022/06/16 09:18:43;;;;;;;10.23;3.63;;;;;;;28.80;50.28;102215.72;5225622;28;20446;-71
2022/06/16 09:21:36;;;;;;;7.30;3.78;;;;;;;28.13;46.27;102224.91;5224149;28;20031;-71
2022/06/16 09:24:20;;;;;;;8.40;3.78;;;;;;;28.70;51.17;102210.91;5210814;28;20029;-71
2022/06/16 09:26:53;;;;;;;5.75;3.22;;;;;;;29.12;48.04;102216.75;5215359;28;20025;-71
2022/06/16 09:29:31;;;;;;;7.50;3.80;;;;;;;28.91;45.72;102223.88;5217332;28;20032;-71
2022/06/16 09:32:13;;;;;;;8.13;4.07;;;;;;;28.76;46.13;102214.56;5216278;28;20072;-71
2022/06/16 09:34:45;;;;;;;6.45;3.17;;;;;;;29.21;46.17;102219.03;5203548;28;20025;-71
2022/06/16 09:37:21;;;;;;;7.63;3.08;;;;;;;29.12;45.91;102218.69;5216852;28;20029;-71
2022/06/16 09:39:58;;;;;;;4.15;2.53;;;;;;;29.26;46.66;102241.22;5213269;28;20020;-71
2022/06/16 09:42:51;;;;;;;8.13;3.00;;;;;;;29.30;45.25;102243.19;5204306;28;20343;-71
2022/06/16 09:45:45;;;;;;;10.38;3.22;;;;;;;29.26;44.69;102253.09;5202691;28;20083;-71
2022/06/16 09:48:37;;;;;;;9.43;3.50;;;;;;;28.74;43.26;102256.25;5209519;28;20017;-71
2022/06/16 09:51:15;;;;;;;5.13;2.50;;;;;;;28.71;43.64;102253.16;5212893;28;20120;-71
2022/06/16 09:54:23;;;;;;;7.85;3.28;;;;;;;28.25;43.74;102253.25;5223984;28;20462;-71
2022/06/16 09:57:02;;;;;;;6.95;3.15;;;;;;;28.32;43.73;102248.41;5220543;28;20071;-71
2022/06/16 09:59:40;;;;;;;7.55;3.80;;;;;;;27.81;42.79;102252.19;5215420;28;20033;-71
2022/06/16 10:02:17;;;;;;;12.63;3.50;;;;;;;27.85;45.16;102245.94;5223897;28;20021;-71
2022/06/16 10:04:50;;;;;;;8.65;3.88;;;;;;;28.07;47.33;102248.84;5221517;28;20025;-71
2022/06/16 10:07:41;;;;;;;6.22;3.15;;;;;;;27.93;43.77;102252.16;5212768;28;20033;-71
2022/06/16 10:10:13;;;;;;;6.00;2.92;;;;;;;28.05;46.05;102253.75;5217559;28;20022;-71
2022/06/16 10:12:51;;;;;;;9.02;3.40;;;;;;;28.36;46.51;102251.53;5216364;28;20055;-71
2022/06/16 10:15:50;;;;;;;14.30;2.60;;;;;;;28.58;45.83;102252.44;5223126;28;20017;-71
2022/06/16 10:18:22;;;;;;;7.97;3.05;;;;;;;28.62;43.36;102247.25;5223288;28;20479;-71
2022/06/16 10:20:53;;;;;;;7.45;2.80;;;;;;;28.75;46.67;102246.03;5210084;28;20021;-71
2022/06/16 10:23:29;;;;;;;4.75;2.92;;;;;;;28.86;45.90;102237.63;5202493;28;20482;-71
2022/06/16 10:26:04;;;;;;;8.48;2.80;;;;;;;28.51;46.01;102250.94;5218201;28;20036;-71
2022/06/16 10:29:13;;;;;;;8.75;3.33;;;;;;;28.17;44.27;102250.94;5223464;28;20413;-71
2022/06/16 10:31:46;;;;;;;5.25;3.00;;;;;;;27.84;43.53;102276.53;5213861;28;20510;-71
2022/06/16 10:34:27;;;;;;;6.50;2.60;;;;;;;28.05;45.94;102264.78;5218703;28;20032;-71
2022/06/16 10:37:17;;;;;;;5.65;2.80;;;;;;;27.70;43.59;102261.34;5223450;28;20421;-71
2022/06/16 10:42:43;;;;;;;4.78;2.60;;;;;;;27.23;43.98;102261.53;5202192;28;20552;-71
2022/06/16 10:45:35;;;;;;;7.35;3.70;;;;;;;26.75;44.51;102251.63;5202620;28;20391;-71
2022/06/16 10:48:44;;;;;;;11.15;3.20;;;;;;;26.78;45.47;102251.16;5218439;28;20029;-71
2022/06/16 10:51:18;;;;;;;7.20;2.53;;;;;;;27.06;45.86;102251.25;5212341;28;20033;-71
2022/06/16 10:54:12;;;;;;;7.88;3.05;;;;;;;27.40;43.44;102240.38;5215520;28;20479;-71
2022/06/16 10:56:42;;;;;;;9.45;2.85;;;;;;;27.61;44.65;102245.22;5216062;28;20655;-71
2022/06/16 10:59:14;;;;;;;10.00;3.72;;;;;;;27.81;45.13;102243.94;5211049;28;20027;-71
2022/06/16 11:01:53;;;;;;;8.48;3.22;;;;;;;27.52;46.17;102237.59;5219511;28;20136;-71
2022/06/16 11:04:33;;;;;;;11.25;3.15;;;;;;;27.70;48.56;102234.59;5213416;28;20467;-71
2022/06/16 11:07:05;;;;;;;6.47;2.50;;;;;;;27.95;48.21;102227.91;5202506;28;20027;-71
2022/06/16 11:09:36;;;;;;;5.60;3.05;;;;;;;28.07;45.25;102235.03;5216013;28;20032;-71
2022/06/16 11:12:16;;;;;;;7.85;3.10;;;;;;;28.33;46.75;102235.44;5222525;28;20021;-71
2022/06/16 11:14:54;;;;;;;10.80;2.78;;;;;;;28.52;44.99;102239.66;5222147;28;20028;-71
2022/06/16 11:17:47;;;;;;;4.55;2.63;;;;;;;28.74;46.86;102244.38;5209296;28;20437;-71
2022/06/16 11:20:56;;;;;;;10.68;2.95;;;;;;;28.53;45.59;102248.78;5210774;28;20721;-71
2022/06/16 11:23:49;;;;;;;8.45;3.53;;;;;;;27.90;43.29;102242.44;5222214;28;20104;-71
2022/06/16 11:26:24;;;;;;;7.28;2.88;;;;;;;28.08;45.58;102242.22;5221601;28;20104;-71
2022/06/16 11:29:01;;;;;;;6.18;3.05;;;;;;;28.33;45.34;102235.44;5222530;28;20494;-71
2022/06/16 11:32:01;;;;;;;6.93;2.97;;;;;;;28.44;46.45;102245.59;5202050;28;20064;-71
2022/06/16 11:34:32;;;;;;;4.28;2.60;;;;;;;28.55;48.02;102228.09;5219828;28;20024;-71
2022/06/16 11:37:37;;;;;;;5.35;2.72;;;;;;;28.03;43.67;102247.66;5222146;28;20032;-71
2022/06/16 11:40:22;;;;;;;6.03;2.45;;;;;;;28.27;47.42;102237.28;5218022;28;20450;-71
2022/06/16 11:43:20;;;;;;;9.95;3.10;;;;;;;28.49;45.75;102242.91;5222416;28;20021;-71
2022/06/16 11:46:14;;;;;;;8.40;3.20;;;;;;;28.05;43.62;102247.41;5222477;28;20040;-71
2022/06/16 11:49:10;;;;;;;5.05;2.80;;;;;;;28.20;45.11;102246.81;5209876;28;20024;-71
2022/06/16 11:51:41;;;;;;;5.10;2.80;;;;;;;27.89;43.67;102254.56;5223401;28;20032;-71
2022/06/16 11:54:22;;;;;;;10.57;2.63;;;;;;;27.82;46.04;102249.22;5214830;28;20044;-72
2022/06/16 11:57:00;;;;;;;6.30;2.45;;;;;;;28.07;46.04;102261.78;5219515;28;20475;-71
2022/06/16 11:59:32;;;;;;;7.75;2.90;;;;;;;27.93;44.28;102258.50;5211052;28;20033;-71
2022/06/16 12:02:39;;;;;;;8.90;2.70;;;;;;;27.85;46.21;102251.47;5215671;28;20033;-71
2022/06/16 12:05:42;;;;;;;8.50;3.00;;;;;;;28.04;45.37;102252.06;5215309;28;20030;-71
2022/06/16 12:08:28;;;;;;;5.45;2.40;;;;;;;28.56;45.42;102251.84;5215604;28;20429;-71
2022/06/16 12:11:20;;;;;;;15.02;3.25;;;;;;;28.47;45.10;102261.66;5214397;28;20115;-71
2022/06/16 12:13:59;;;;;;;6.82;2.72;;;;;;;28.64;45.40;102256.09;5223211;28;20021;-71
2022/06/16 12:16:36;;;;;;;10.65;2.92;;;;;;;28.55;46.15;102263.13;5218013;28;20375;-71
2022/06/16 12:19:15;;;;;;;5.72;3.00;;;;;;;28.27;43.97;102266.81;5202115;28;20040;-71
2022/06/16 12:21:54;;;;;;;12.70;3.08;;;;;;;28.29;44.05;102265.47;5210842;28;20390;-71